Map

Track Data

SID SEASON NUMBER BASIN SUBBASIN NAME ISO_TIME NATURE LAT LON WMO_WIND WMO_PRES WMO_AGENCY TRACK_TYPE DIST2LAND LANDFALL IFLAG USA_AGENCY USA_ATCF_ID USA_LAT USA_LON USA_RECORD USA_STATUS USA_WIND USA_PRES USA_SSHS USA_R34_NE USA_R34_SE USA_R34_SW USA_R34_NW USA_R50_NE USA_R50_SE USA_R50_SW USA_R50_NW USA_R64_NE USA_R64_SE USA_R64_SW USA_R64_NW USA_POCI USA_ROCI USA_RMW USA_EYE TOKYO_LAT TOKYO_LON TOKYO_GRADE TOKYO_WIND TOKYO_PRES TOKYO_R50_DIR TOKYO_R50_LONG TOKYO_R50_SHORT TOKYO_R30_DIR TOKYO_R30_LONG TOKYO_R30_SHORT TOKYO_LAND CMA_LAT CMA_LON CMA_CAT CMA_WIND CMA_PRES HKO_LAT HKO_LON HKO_CAT HKO_WIND HKO_PRES NEWDELHI_LAT NEWDELHI_LON NEWDELHI_GRADE NEWDELHI_WIND NEWDELHI_PRES NEWDELHI_CI NEWDELHI_DP NEWDELHI_POCI REUNION_LAT REUNION_LON REUNION_TYPE REUNION_WIND REUNION_PRES REUNION_TNUM REUNION_CI REUNION_RMW REUNION_R34_NE REUNION_R34_SE REUNION_R34_SW REUNION_R34_NW REUNION_R50_NE REUNION_R50_SE REUNION_R50_SW REUNION_R50_NW REUNION_R64_NE REUNION_R64_SE REUNION_R64_SW REUNION_R64_NW BOM_LAT BOM_LON BOM_TYPE BOM_WIND BOM_PRES BOM_TNUM BOM_CI BOM_RMW BOM_R34_NE BOM_R34_SE BOM_R34_SW BOM_R34_NW BOM_R50_NE BOM_R50_SE BOM_R50_SW BOM_R50_NW BOM_R64_NE BOM_R64_SE BOM_R64_SW BOM_R64_NW BOM_ROCI BOM_POCI BOM_EYE BOM_POS_METHOD BOM_PRES_METHOD NADI_LAT NADI_LON NADI_CAT NADI_WIND NADI_PRES WELLINGTON_LAT WELLINGTON_LON WELLINGTON_WIND WELLINGTON_PRES DS824_LAT DS824_LON DS824_STAGE DS824_WIND DS824_PRES TD9636_LAT TD9636_LON TD9636_STAGE TD9636_WIND TD9636_PRES TD9635_LAT TD9635_LON TD9635_WIND TD9635_PRES TD9635_ROCI NEUMANN_LAT NEUMANN_LON NEUMANN_CLASS NEUMANN_WIND NEUMANN_PRES MLC_LAT MLC_LON MLC_CLASS MLC_WIND MLC_PRES USA_GUST BOM_GUST BOM_GUST_PER REUNION_GUST REUNION_GUST_PER USA_SEAHGT USA_SEARAD_NE USA_SEARAD_SE USA_SEARAD_SW USA_SEARAD_NW STORM_SPEED STORM_DIR
1986346S12173 1987 118 SP MM PATSY 1986-12-12 06:00:00 TS -12.4000 172.900 main 691 691 O_________O_O_ jtwc_sh SH031987 -12.4000 172.900 25 -1 -12.4000 172.900 1 25 -12.4000 172.900 TC 25 1 0
1986346S12173 1987 118 SP MM PATSY 1986-12-12 09:00:00 TS -12.3800 172.873 main 691 681 P_________P_P_ SH031987 -12.3800 172.868 27 -1 -12.3798 172.883 1 27 -12.3800 172.868 TC 27 1 317
1986346S12173 1987 118 SP MM PATSY 1986-12-12 12:00:00 TS -12.3000 172.800 main 686 676 O_________O_O_ jtwc_sh SH031987 -12.3000 172.800 30 -1 -12.3000 172.800 1 30 -12.3000 172.800 TC 30 3 318
1986346S12173 1987 118 SP MM PATSY 1986-12-12 15:00:00 TS -12.1220 172.641 main 677 677 P_________P_P_ SH031987 -12.1224 172.660 30 -1 -12.1213 172.603 1 30 -12.1224 172.660 TC 30 6 328
1986346S12173 1987 118 SP MM PATSY 1986-12-12 18:00:00 TS -11.7496 172.455 30 997 wellington main 691 677 O_______O_P_O_ jtwc_sh SH031987 -11.9000 172.400 30 -1 -10.0000 173.500 30 997 -11.8863 172.302 1 30 -11.9000 172.400 TC 30 8 325
1986346S12173 1987 118 SP MM PATSY 1986-12-12 21:00:00 TS -11.4447 172.157 main 683 656 P_______P_P_P_ SH031987 -11.6625 172.002 30 -1 -10.1469 173.237 30 997 -11.6581 171.926 1 30 -11.6625 172.002 TC 30 8 304
1986346S12173 1987 118 SP MM PATSY 1986-12-13 00:00:00 TS -11.2800 171.740 30 997 wellington main 648 607 O_______O_O_O_ jtwc_sh SH031987 -11.5000 171.500 30 -1 -10.4000 172.700 30 997 -11.5000 171.500 1 30 -11.5000 171.500 TC 30 10 277
1986346S12173 1987 118 SP MM PATSY 1986-12-13 03:00:00 TS -11.3267 171.166 main 607 545 P_______P_P_P_ SH031987 -11.5051 170.943 30 -1 -10.8084 171.751 30 997 -11.4883 171.028 1 30 -11.5051 170.943 TC 30 12 260
1986346S12173 1987 118 SP MM PATSY 1986-12-13 06:00:00 TS -11.4883 170.530 30 997 wellington main 537 500 O_______O_P_O_ jtwc_sh SH031987 -11.6000 170.400 30 -1 -11.2000 170.800 30 997 -11.5532 170.521 1 30 -11.6000 170.400 TC 30 11 256
1986346S12173 1987 118 SP MM PATSY 1986-12-13 09:00:00 TS -11.6058 170.064 main 500 464 P_______P_P_P_ SH031987 -11.6849 169.962 30 -1 -11.3870 170.302 32 996 -11.6664 170.028 1 30 -11.6849 169.962 TC 30 8 254
1986346S12173 1987 118 SP MM PATSY 1986-12-13 12:00:00 TS -11.7250 169.700 35 995 wellington main 464 427 O_______O_O_O_ jtwc_sh SH031987 -11.8000 169.600 30 -1 -11.5000 170.000 35 995 -11.8000 169.600 1 30 -11.8000 169.600 TC 30 7 249
1986346S12173 1987 118 SP MM PATSY 1986-12-13 15:00:00 TS -11.8671 169.372 main 427 399 P_______P_P_P_ SH031987 -11.9500 169.263 30 -1 -11.6499 169.677 37 992 -11.9183 169.287 1 30 -11.9500 169.263 TC 30 6 243
1986346S12173 1987 118 SP MM PATSY 1986-12-13 18:00:00 TS -12.0124 169.111 40 990 wellington main 399 378 O_______O_P_O_ jtwc_sh SH031987 -12.1000 169.000 30 -1 -11.8000 169.400 40 990 -12.0495 169.045 1 30 -12.1000 169.000 TC 30 5 239
1986346S12173 1987 118 SP MM PATSY 1986-12-13 21:00:00 TS -12.1383 168.911 main 378 363 P_______P_P_P_ SH031987 -12.2149 168.827 30 -1 -11.9425 169.135 40 990 -12.1810 168.856 1 30 -12.2149 168.827 TC 30 4 236
1986346S12173 1987 118 SP MM PATSY 1986-12-14 00:00:00 TS -12.2500 168.750 40 990 wellington main 363 343 O_______O_O_O_ jtwc_sh SH031987 -12.3000 168.700 30 -1 -12.1000 168.900 40 990 -12.3000 168.700 1 30 -12.3000 168.700 TC 30 4 238
1986346S12173 1987 118 SP MM PATSY 1986-12-14 03:00:00 TS -12.3412 168.578 main 343 322 P_______P_P_P_ SH031987 -12.3500 168.542 30 -1 -12.3000 168.685 42 988 -12.3649 168.542 1 30 -12.3500 168.542 TC 30 4 240
1986346S12173 1987 118 SP MM PATSY 1986-12-14 06:00:00 TS -12.4300 168.428 45 987 wellington main 322 307 O_______O_P_O_ jtwc_sh SH031987 -12.4000 168.400 30 -1 -12.5000 168.500 45 987 -12.4199 168.412 1 30 -12.4000 168.400 TC 30 3 235
1986346S12173 1987 118 SP MM PATSY 1986-12-14 09:00:00 TS -12.5275 168.305 main 307 291 P_______P_P_P_ SH031987 -12.4775 168.292 30 -1 -12.6650 168.335 47 986 -12.4899 168.301 1 30 -12.4775 168.292 TC 30 3 226
1986346S12173 1987 118 SP MM PATSY 1986-12-14 12:00:00 TS -12.6500 168.200 50 985 wellington main 291 267 O_______O_O_O_ jtwc_sh SH031987 -12.6000 168.200 30 -1 -12.8000 168.200 50 985 -12.6000 168.200 1 30 -12.6000 168.200 TC 30 3 215
1986346S12173 1987 118 SP MM PATSY 1986-12-14 15:00:00 TS -12.8050 168.102 main 267 243 P_______P_P_P_ SH031987 -12.7775 168.100 32 -1 -12.9075 168.092 52 982 -12.7574 168.117 1 32 -12.7775 168.100 TC 32 4 209
1986346S12173 1987 118 SP MM PATSY 1986-12-14 18:00:00 TS -12.9900 168.009 55 980 wellington main 243 218 O_______O_P_O_ jtwc_sh SH031987 -13.0000 168.000 35 0 -13.0000 168.000 55 980 -12.9598 168.037 1 35 -13.0000 168.000 TC 35 4 204
1986346S12173 1987 118 SP MM PATSY 1986-12-14 21:00:00 TS -13.1812 167.926 main 218 194 P_______P_P_P_ SH031987 -13.2275 167.915 37 0 -13.0624 167.937 57 977 -13.2074 167.939 1 37 -13.2275 167.915 TC 37 5 205
1986346S12173 1987 118 SP MM PATSY 1986-12-15 00:00:00 TS -13.4250 167.800 60 975 wellington main 194 155 O_______O_O_O_ jtwc_sh SH031987 -13.5000 167.800 40 0 -13.2000 167.800 60 975 -13.5000 167.800 2 40 -13.5000 167.800 TC 40 7 211
1986346S12173 1987 118 SP MM PATSY 1986-12-15 03:00:00 TS -13.7401 167.578 main 155 101 P_______P_P_P_ SH031987 -13.8275 167.630 45 0 -13.4977 167.465 60 975 -13.8077 167.585 2 42 -13.8275 167.630 TC 45 8 215
1986346S12173 1987 118 SP MM PATSY 1986-12-15 06:00:00 TS -14.1151 167.308 60 975 wellington main 101 54 O_______O_P_O_ jtwc_sh SH031987 -14.2000 167.400 50 0 -13.9000 167.100 60 975 -14.1603 167.330 2 45 -14.2000 167.400 TC 50 9 214
1986346S12173 1987 118 SP MM PATSY 1986-12-15 09:00:00 TS -14.5119 167.040 main 46 10 P_______P_P_P_ SH031987 -14.5775 167.107 50 0 -14.3349 166.885 60 975 -14.5577 167.060 2 47 -14.5775 167.107 TC 50 10 212
1986346S12173 1987 118 SP MM PATSY 1986-12-15 12:00:00 TS -14.9500 166.775 60 975 wellington main 10 0 O_______O_O_O_ jtwc_sh SH031987 -15.0000 166.800 50 0 -14.8000 166.700 60 975 -15.0000 166.800 2 50 -15.0000 166.800 TC 50 10 210
1986346S12173 1987 118 SP MM PATSY 1986-12-15 15:00:00 TS -15.4079 166.510 main 10 10 P_______P_P_P_ SH031987 -15.4775 166.527 52 0 -15.1826 166.435 60 975 -15.4941 166.550 2 50 -15.4775 166.527 TC 52 11 206
1986346S12173 1987 118 SP MM PATSY 1986-12-15 18:00:00 TS -15.9319 166.280 60 975 wellington main 58 58 O_______O_P_O_ jtwc_sh SH031987 -16.0000 166.300 55 0 -15.7000 166.200 60 975 -16.0276 166.318 2 50 -16.0000 166.300 TC 55 12 199
1986346S12173 1987 118 SP MM PATSY 1986-12-15 21:00:00 TS -16.5680 166.104 main 120 120 P_______P_P_P_ SH031987 -16.5500 166.113 52 0 -16.6000 166.063 57 977 -16.5723 166.128 2 50 -16.5500 166.113 TC 52 13 192
1986346S12173 1987 118 SP MM PATSY 1986-12-16 00:00:00 TS -17.2000 166.000 55 980 wellington main 168 168 O_______O_O_O_ jtwc_sh SH031987 -17.1000 166.000 50 0 -17.5000 166.000 55 980 -17.1000 166.000 2 50 -17.1000 166.000 TC 50 12 187
1986346S12173 1987 118 SP MM PATSY 1986-12-16 03:00:00 TS -17.7130 165.963 main 200 200 P_______P_P_P_ SH031987 -17.6225 165.970 50 0 -18.0399 165.977 55 980 -17.5673 165.936 2 48 -17.6225 165.970 TC 50 10 0
1986346S12173 1987 118 SP MM PATSY 1986-12-16 06:00:00 TS -18.1537 165.984 55 980 wellington main 239 239 O_______O_P_O_ jtwc_sh SH031987 -18.1000 166.000 50 0 -18.4000 166.000 55 980 -18.0147 165.937 2 47 -18.1000 166.000 TC 50 8 177
1986346S12173 1987 118 SP MM PATSY 1986-12-16 09:00:00 TS -18.5387 166.018 main 255 229 P_______P_P_P_ SH031987 -18.5150 166.028 47 0 -18.6700 166.020 52 982 -18.4548 165.995 2 46 -18.5150 166.028 TC 47 8 172
1986346S12173 1987 118 SP MM PATSY 1986-12-16 12:00:00 TS -18.9250 166.100 50 985 wellington main 229 188 O_______O_O_O_ jtwc_sh SH031987 -18.9000 166.100 45 0 -19.0000 166.100 50 985 -18.9000 166.100 2 45 -18.9000 166.100 TC 45 9 166
1986346S12173 1987 118 SP MM PATSY 1986-12-16 15:00:00 TS -19.3788 166.229 main 188 160 P_______P_P_P_ SH031987 -19.2775 166.228 45 0 -19.6051 166.285 45 987 -19.3551 166.176 2 43 -19.2775 166.228 TC 45 10 164
1986346S12173 1987 118 SP MM PATSY 1986-12-16 18:00:00 TS -19.8798 166.401 40 990 wellington main 160 133 O_______O_P_O_ jtwc_sh SH031987 -19.7000 166.400 45 0 -20.3000 166.500 40 990 -19.8191 166.302 2 42 -19.7000 166.400 TC 45 11 162
1986346S12173 1987 118 SP MM PATSY 1986-12-16 21:00:00 TS -20.4302 166.582 main 133 91 P_______P_P_P_ SH031987 -20.2199 166.570 42 0 -20.9825 166.687 37 992 -20.2986 166.502 2 41 -20.2199 166.570 TC 42 12 161
1986346S12173 1987 118 SP MM PATSY 1986-12-17 00:00:00 TS -20.9750 166.800 35 995 wellington main 88 68 O_______O_O_O_ jtwc_sh SH031987 -20.8000 166.800 40 0 -21.5000 166.800 35 995 -20.8000 166.800 2 40 -20.8000 166.800 TC 40 11 158
1986346S12173 1987 118 SP MM PATSY 1986-12-17 03:00:00 TS -21.4560 167.036 main 60 45 P_______P_P_P_ SH031987 -21.4071 167.075 37 0 -21.6825 166.780 32 996 -21.3273 167.213 2 38 -21.4071 167.075 TC 37 10 153
1986346S12173 1987 118 SP MM PATSY 1986-12-17 06:00:00 TS -21.8789 167.305 30 997 wellington main 45 45 O_______O_P_O_ jtwc_sh SH031987 -22.0000 167.500 35 0 -21.7000 166.700 30 997 -21.8750 167.720 2 37 -22.0000 167.500 TC 35 9 146
1986346S12173 1987 118 SP MM PATSY 1986-12-17 09:00:00 TS -22.1964 167.579 main 61 61 P_______P_P_P_ SH031987 -22.5235 168.136 35 0 -21.7500 166.665 30 997 -22.4352 168.292 2 36 -22.5235 168.136 TC 35 5 149
1986346S12173 1987 118 SP MM PATSY 1986-12-17 12:00:00 TS -22.3143 167.586 30 997 wellington main 61 0 O_______O_O_O_ jtwc_sh SH031987 -23.0000 168.900 35 0 -21.8000 166.600 30 997 -23.0000 168.900 2 35 -23.0000 168.900 TC 35 11 287
1986346S12173 1987 118 SP MM PATSY 1986-12-17 15:00:00 NR -21.8850 166.458 main 0 0 ________P_____ SH031987 -1 -21.8850 166.458 30 997 2 TC 12 285
1986346S12173 1987 118 SP MM PATSY 1986-12-17 18:00:00 NR -22.0000 166.300 30 997 wellington main 0 0 ________O_____ -1 -22.0000 166.300 30 997 2 3 220
1986346S12173 1987 118 SP MM PATSY 1986-12-17 21:00:00 NR -22.1424 166.222 main 0 0 ________P_____ -1 -22.1424 166.222 30 997 2 4 211
1986346S12173 1987 118 SP MM PATSY 1986-12-18 00:00:00 NR -22.3000 166.100 30 997 wellington main 22 22 ________O_____ -1 -22.3000 166.100 30 997 4 224
1986346S12173 1987 118 SP MM PATSY 1986-12-18 03:00:00 NR -22.4570 165.897 main 49 49 ________P_____ -1 -22.4570 165.897 30 997 6 242
1986346S12173 1987 118 SP MM PATSY 1986-12-18 06:00:00 NR -22.6000 165.500 30 997 wellington main 83 83 ________O_____ -1 -22.6000 165.500 30 997 12 254
1986346S12173 1987 118 SP MM PATSY 1986-12-18 09:00:00 NR -22.7690 164.683 main 147 147 ________P_____ -1 -22.7690 164.683 35 993 14 262
1986346S12173 1987 118 SP MM PATSY 1986-12-18 12:00:00 NR -22.8000 164.000 40 990 wellington main 181 154 ________O_____ -1 -22.8000 164.000 40 990 7 294
1986346S12173 1987 118 SP MM PATSY 1986-12-18 15:00:00 NR -22.4920 164.000 main 154 108 ________P_____ -1 -22.4920 164.000 40 990 7 25
1986346S12173 1987 118 SP MM PATSY 1986-12-18 18:00:00 NR -22.2000 164.300 40 990 wellington main 108 98 ________O_____ -1 -22.2000 164.300 40 990 6 61
1986346S12173 1987 118 SP MM PATSY 1986-12-18 21:00:00 NR -22.2107 164.539 main 98 94 ________P_____ -1 -22.2107 164.539 40 990 6 123
1986346S12173 1987 118 SP MM PATSY 1986-12-19 00:00:00 NR -22.5000 164.800 40 990 wellington main 113 113 ________O_____ -1 -22.5000 164.800 40 990 9 153
1986346S12173 1987 118 SP MM PATSY 1986-12-19 03:00:00 NR -23.0466 165.000 main 147 147 ________P_____ -1 -23.0466 165.000 40 990 14 165
1986346S12173 1987 118 SP MM PATSY 1986-12-19 06:00:00 NR -23.8465 165.181 main 207 207 ________P_____ -1 -23.8465 165.181 40 990 18 169
1986346S12173 1987 118 SP MM PATSY 1986-12-19 09:00:00 NR -24.7981 165.372 main 297 297 ________P_____ -1 -24.7981 165.372 40 990 20 169
1986346S12173 1987 118 SP MM PATSY 1986-12-19 12:00:00 NR -25.8000 165.600 40 990 wellington main 396 396 ________O_____ -1 -25.8000 165.600 40 990 20 166
1986346S12173 1987 118 SP MM PATSY 1986-12-19 15:00:00 NR -26.7083 165.904 main 487 487 ________P_____ -1 -26.7083 165.904 40 990 19 162
1986346S12173 1987 118 SP MM PATSY 1986-12-19 18:00:00 NR -27.6423 166.251 main 582 582 ________P_____ -1 -27.6423 166.251 40 990 20 161
1986346S12173 1987 118 SP MM PATSY 1986-12-19 21:00:00 NR -28.5801 166.622 main 692 692 ________P_____ -1 -28.5801 166.622 40 990 20 160
1986346S12173 1987 118 SP MM PATSY 1986-12-20 00:00:00 NR -29.5000 167.000 40 990 wellington main 767 682 ________O_____ -1 -29.5000 167.000 40 990 18 160
1986346S12173 1987 118 SP MM PATSY 1986-12-20 03:00:00 NR -30.3036 167.338 main 682 601 ________P_____ -1 -30.3036 167.338 17 160
1986346S12173 1987 118 SP MM PATSY 1986-12-20 06:00:00 NR -31.0616 167.670 main 593 522 ________P_____ -1 -31.0616 167.670 16 159
1986346S12173 1987 118 SP MM PATSY 1986-12-20 09:00:00 NR -31.7961 168.001 main 522 456 ________P_____ -1 -31.7961 168.001 16 159
1986346S12173 1987 118 SP MM PATSY 1986-12-20 12:00:00 NR -32.5296 168.334 main 456 387 ________P_____ -1 -32.5296 168.334 16 159
1986346S12173 1987 118 SP MM PATSY 1986-12-20 15:00:00 NR -33.2844 168.674 main 383 334 ________P_____ -1 -33.2844 168.674 17 160
1986346S12173 1987 118 SP MM PATSY 1986-12-20 18:00:00 NR -34.0828 169.028 main 332 293 ________P_____ -1 -34.0828 169.028 18 160
1986346S12173 1987 118 SP MM PATSY 1986-12-20 21:00:00 NR -34.9472 169.401 main 295 286 ________P_____ -1 -34.9472 169.401 19 161
1986346S12173 1987 118 SP MM PATSY 1986-12-21 00:00:00 NR -35.9000 169.800 40 990 wellington main 297 297 ________O_____ -1 -35.9000 169.800 40 990 21 165
1986346S12173 1987 118 SP MM PATSY 1986-12-21 03:00:00 NR -37.0046 170.079 main 336 323 ________P_____ -1 -37.0046 170.079 40 990 23 168
1986346S12173 1987 118 SP MM PATSY 1986-12-21 06:00:00 NR -38.1676 170.422 main 318 201 ________P_____ -1 -38.1676 170.422 40 990 24 164
1986346S12173 1987 118 SP MM PATSY 1986-12-21 09:00:00 NR -39.3472 170.927 main 201 69 ________P_____ -1 -39.3472 170.927 40 990 25 157
1986346S12173 1987 118 SP MM PATSY 1986-12-21 12:00:00 NR -40.5000 171.700 40 990 wellington main 55 0 ________O_____ -1 -40.5000 171.700 40 990 27 147
1986346S12173 1987 118 SP MM PATSY 1986-12-21 15:00:00 NR -41.5888 172.821 main 0 0 ________P_____ -1 -41.5888 172.821 40 990 28 138
1986346S12173 1987 118 SP MM PATSY 1986-12-21 18:00:00 NR -42.6124 174.248 main 46 46 ________P_____ -1 -42.6124 174.248 40 990 30 131
1986346S12173 1987 118 SP MM PATSY 1986-12-21 21:00:00 NR -43.5792 175.902 main 219 219 ________P_____ -1 -43.5792 175.902 40 990 31 127
1986346S12173 1987 118 SP MM PATSY 1986-12-22 00:00:00 NR -44.5000 177.700 40 990 wellington main 371 ________O_____ -1 -44.5000 177.700 40 990 32 126

Digital Typhoon Data and Search

About IBTrACS Database

This database is a web-friendly format of International Best Track Archive for Climate Stewardship (IBTrACS), a global best track data archive curated by NOAA dating back to 1842.

Updated: 2021-10-27